sensor_id;sensor_type;location;lat;lon;timestamp;P1;durP1;ratioP1;P2;durP2;ratioP2
22995;SDS011;11664;49.774;8.650;2023-03-03T00:02:07;11.05;;;6.10;;
22995;SDS011;11664;49.774;8.650;2023-03-03T00:04:42;9.00;;;5.75;;
22995;SDS011;11664;49.774;8.650;2023-03-03T00:07:08;7.35;;;5.25;;
22995;SDS011;11664;49.774;8.650;2023-03-03T00:09:34;10.82;;;5.60;;
22995;SDS011;11664;49.774;8.650;2023-03-03T00:12:00;7.75;;;5.68;;
22995;SDS011;11664;49.774;8.650;2023-03-03T00:14:39;15.73;;;5.82;;
22995;SDS011;11664;49.774;8.650;2023-03-03T00:19:57;6.47;;;5.32;;
22995;SDS011;11664;49.774;8.650;2023-03-03T00:22:34;10.07;;;6.07;;
22995;SDS011;11664;49.774;8.650;2023-03-03T00:25:20;9.05;;;5.85;;
22995;SDS011;11664;49.774;8.650;2023-03-03T00:28:01;6.10;;;4.70;;
22995;SDS011;11664;49.774;8.650;2023-03-03T00:30:47;7.65;;;5.53;;
22995;SDS011;11664;49.774;8.650;2023-03-03T00:33:18;6.88;;;4.72;;
22995;SDS011;11664;49.774;8.650;2023-03-03T00:35:47;9.63;;;5.45;;
22995;SDS011;11664;49.774;8.650;2023-03-03T00:38:14;9.73;;;6.20;;
22995;SDS011;11664;49.774;8.650;2023-03-03T00:40:47;8.63;;;5.83;;
22995;SDS011;11664;49.774;8.650;2023-03-03T00:43:23;9.85;;;5.95;;
22995;SDS011;11664;49.774;8.650;2023-03-03T00:45:56;6.93;;;5.28;;
22995;SDS011;11664;49.774;8.650;2023-03-03T00:50:56;8.07;;;5.38;;
22995;SDS011;11664;49.774;8.650;2023-03-03T00:53:26;6.97;;;5.07;;
22995;SDS011;11664;49.774;8.650;2023-03-03T00:55:53;7.63;;;5.55;;
22995;SDS011;11664;49.774;8.650;2023-03-03T00:58:23;11.27;;;6.18;;
22995;SDS011;11664;49.774;8.650;2023-03-03T01:00:50;9.23;;;6.32;;
22995;SDS011;11664;49.774;8.650;2023-03-03T01:03:19;12.75;;;6.10;;
22995;SDS011;11664;49.774;8.650;2023-03-03T01:05:46;7.03;;;5.90;;
22995;SDS011;11664;49.774;8.650;2023-03-03T01:08:13;9.00;;;5.50;;
22995;SDS011;11664;49.774;8.650;2023-03-03T01:10:55;7.53;;;5.38;;
22995;SDS011;11664;49.774;8.650;2023-03-03T01:13:24;8.13;;;5.13;;
22995;SDS011;11664;49.774;8.650;2023-03-03T01:15:52;6.53;;;4.93;;
22995;SDS011;11664;49.774;8.650;2023-03-03T01:18:18;7.60;;;5.15;;
22995;SDS011;11664;49.774;8.650;2023-03-03T01:20:47;9.55;;;6.13;;
22995;SDS011;11664;49.774;8.650;2023-03-03T01:23:19;8.82;;;6.30;;
22995;SDS011;11664;49.774;8.650;2023-03-03T01:25:54;10.83;;;6.27;;
22995;SDS011;11664;49.774;8.650;2023-03-03T01:28:19;9.23;;;6.00;;
22995;SDS011;11664;49.774;8.650;2023-03-03T01:30:48;9.40;;;6.00;;
22995;SDS011;11664;49.774;8.650;2023-03-03T01:33:18;11.57;;;6.43;;
22995;SDS011;11664;49.774;8.650;2023-03-03T01:35:44;12.50;;;7.13;;
22995;SDS011;11664;49.774;8.650;2023-03-03T01:38:14;10.07;;;6.18;;
22995;SDS011;11664;49.774;8.650;2023-03-03T01:40:39;11.98;;;6.97;;
22995;SDS011;11664;49.774;8.650;2023-03-03T01:43:10;9.70;;;6.38;;
22995;SDS011;11664;49.774;8.650;2023-03-03T01:48:35;10.95;;;6.07;;
22995;SDS011;11664;49.774;8.650;2023-03-03T01:51:17;9.02;;;6.50;;
22995;SDS011;11664;49.774;8.650;2023-03-03T01:54:01;9.60;;;5.80;;
22995;SDS011;11664;49.774;8.650;2023-03-03T01:56:30;10.63;;;6.45;;
22995;SDS011;11664;49.774;8.650;2023-03-03T02:01:56;8.88;;;6.25;;
22995;SDS011;11664;49.774;8.650;2023-03-03T02:04:21;7.75;;;5.70;;
22995;SDS011;11664;49.774;8.650;2023-03-03T02:06:51;14.77;;;6.65;;
22995;SDS011;11664;49.774;8.650;2023-03-03T02:12:51;10.30;;;6.20;;
22995;SDS011;11664;49.774;8.650;2023-03-03T02:15:27;14.75;;;6.22;;
22995;SDS011;11664;49.774;8.650;2023-03-03T02:17:59;12.07;;;5.95;;
22995;SDS011;11664;49.774;8.650;2023-03-03T02:26:06;14.95;;;6.75;;
22995;SDS011;11664;49.774;8.650;2023-03-03T02:28:37;16.35;;;6.50;;
22995;SDS011;11664;49.774;8.650;2023-03-03T02:31:05;14.93;;;7.35;;
22995;SDS011;11664;49.774;8.650;2023-03-03T02:33:54;8.68;;;6.40;;
22995;SDS011;11664;49.774;8.650;2023-03-03T02:36:30;9.48;;;6.18;;
22995;SDS011;11664;49.774;8.650;2023-03-03T02:41:54;14.02;;;6.60;;
22995;SDS011;11664;49.774;8.650;2023-03-03T02:44:44;14.23;;;6.85;;
22995;SDS011;11664;49.774;8.650;2023-03-03T02:50:47;11.23;;;6.15;;
22995;SDS011;11664;49.774;8.650;2023-03-03T02:53:16;12.32;;;6.88;;
22995;SDS011;11664;49.774;8.650;2023-03-03T02:55:44;14.13;;;7.07;;
22995;SDS011;11664;49.774;8.650;2023-03-03T02:58:13;11.93;;;7.25;;
22995;SDS011;11664;49.774;8.650;2023-03-03T03:00:38;10.45;;;7.30;;
22995;SDS011;11664;49.774;8.650;2023-03-03T03:03:04;14.88;;;6.78;;
22995;SDS011;11664;49.774;8.650;2023-03-03T03:05:29;12.48;;;6.90;;
22995;SDS011;11664;49.774;8.650;2023-03-03T03:07:55;10.50;;;7.07;;
22995;SDS011;11664;49.774;8.650;2023-03-03T03:10:20;12.45;;;7.50;;
22995;SDS011;11664;49.774;8.650;2023-03-03T03:12:52;11.07;;;7.18;;
22995;SDS011;11664;49.774;8.650;2023-03-03T03:15:18;10.35;;;7.38;;
22995;SDS011;11664;49.774;8.650;2023-03-03T03:17:43;8.88;;;7.28;;
22995;SDS011;11664;49.774;8.650;2023-03-03T03:20:15;13.13;;;7.65;;
22995;SDS011;11664;49.774;8.650;2023-03-03T03:25:06;8.27;;;6.45;;
22995;SDS011;11664;49.774;8.650;2023-03-03T03:27:32;12.80;;;7.20;;
22995;SDS011;11664;49.774;8.650;2023-03-03T03:29:58;10.98;;;7.05;;
22995;SDS011;11664;49.774;8.650;2023-03-03T03:32:23;11.40;;;7.43;;
22995;SDS011;11664;49.774;8.650;2023-03-03T03:34:52;16.60;;;8.55;;
22995;SDS011;11664;49.774;8.650;2023-03-03T03:37:17;13.10;;;7.90;;
22995;SDS011;11664;49.774;8.650;2023-03-03T03:39:44;12.55;;;8.02;;
22995;SDS011;11664;49.774;8.650;2023-03-03T03:42:09;12.82;;;7.93;;
22995;SDS011;11664;49.774;8.650;2023-03-03T03:44:35;12.65;;;7.72;;
22995;SDS011;11664;49.774;8.650;2023-03-03T03:47:04;18.25;;;8.23;;
22995;SDS011;11664;49.774;8.650;2023-03-03T03:49:32;13.80;;;7.93;;
22995;SDS011;11664;49.774;8.650;2023-03-03T03:52:01;11.48;;;8.60;;
22995;SDS011;11664;49.774;8.650;2023-03-03T03:54:26;14.18;;;8.00;;
22995;SDS011;11664;49.774;8.650;2023-03-03T03:56:52;15.40;;;9.00;;
22995;SDS011;11664;49.774;8.650;2023-03-03T03:59:18;16.00;;;8.93;;
22995;SDS011;11664;49.774;8.650;2023-03-03T04:01:50;13.35;;;8.07;;
22995;SDS011;11664;49.774;8.650;2023-03-03T04:04:16;15.05;;;7.82;;
22995;SDS011;11664;49.774;8.650;2023-03-03T04:06:41;13.50;;;7.82;;
22995;SDS011;11664;49.774;8.650;2023-03-03T04:09:07;14.15;;;7.95;;
22995;SDS011;11664;49.774;8.650;2023-03-03T04:11:35;16.90;;;9.02;;
22995;SDS011;11664;49.774;8.650;2023-03-03T04:14:01;13.85;;;9.30;;
22995;SDS011;11664;49.774;8.650;2023-03-03T04:16:27;14.70;;;9.10;;
22995;SDS011;11664;49.774;8.650;2023-03-03T04:18:52;15.32;;;8.70;;
22995;SDS011;11664;49.774;8.650;2023-03-03T04:21:18;17.98;;;10.20;;
22995;SDS011;11664;49.774;8.650;2023-03-03T04:23:46;11.48;;;7.70;;
22995;SDS011;11664;49.774;8.650;2023-03-03T04:26:15;21.48;;;10.27;;
22995;SDS011;11664;49.774;8.650;2023-03-03T04:28:40;16.95;;;8.52;;
22995;SDS011;11664;49.774;8.650;2023-03-03T04:31:07;15.63;;;9.23;;
22995;SDS011;11664;49.774;8.650;2023-03-03T04:33:32;18.75;;;10.40;;
22995;SDS011;11664;49.774;8.650;2023-03-03T04:35:58;22.27;;;10.02;;
22995;SDS011;11664;49.774;8.650;2023-03-03T04:38:24;16.05;;;10.35;;
22995;SDS011;11664;49.774;8.650;2023-03-03T04:40:50;19.35;;;10.98;;
22995;SDS011;11664;49.774;8.650;2023-03-03T04:43:15;19.50;;;9.63;;
22995;SDS011;11664;49.774;8.650;2023-03-03T04:45:41;16.30;;;9.48;;
22995;SDS011;11664;49.774;8.650;2023-03-03T04:48:10;23.88;;;10.95;;
22995;SDS011;11664;49.774;8.650;2023-03-03T04:50:35;19.10;;;9.70;;
22995;SDS011;11664;49.774;8.650;2023-03-03T04:53:01;16.75;;;10.25;;
22995;SDS011;11664;49.774;8.650;2023-03-03T04:55:34;16.55;;;9.63;;
22995;SDS011;11664;49.774;8.650;2023-03-03T04:58:01;19.15;;;10.80;;
22995;SDS011;11664;49.774;8.650;2023-03-03T05:00:26;20.90;;;9.60;;
22995;SDS011;11664;49.774;8.650;2023-03-03T05:02:52;21.75;;;9.50;;
22995;SDS011;11664;49.774;8.650;2023-03-03T05:05:17;14.48;;;9.60;;
22995;SDS011;11664;49.774;8.650;2023-03-03T05:07:43;16.88;;;10.02;;
22995;SDS011;11664;49.774;8.650;2023-03-03T05:10:09;18.40;;;10.15;;
22995;SDS011;11664;49.774;8.650;2023-03-03T05:12:34;19.20;;;10.32;;
22995;SDS011;11664;49.774;8.650;2023-03-03T05:15:00;15.23;;;9.55;;
22995;SDS011;11664;49.774;8.650;2023-03-03T05:17:26;18.33;;;11.95;;
22995;SDS011;11664;49.774;8.650;2023-03-03T05:19:51;21.30;;;11.25;;
22995;SDS011;11664;49.774;8.650;2023-03-03T05:22:17;20.35;;;10.48;;
22995;SDS011;11664;49.774;8.650;2023-03-03T05:24:42;22.05;;;11.85;;
22995;SDS011;11664;49.774;8.650;2023-03-03T05:27:08;19.05;;;11.38;;
22995;SDS011;11664;49.774;8.650;2023-03-03T05:29:39;20.45;;;11.35;;
22995;SDS011;11664;49.774;8.650;2023-03-03T05:32:05;20.35;;;10.80;;
22995;SDS011;11664;49.774;8.650;2023-03-03T05:34:30;22.02;;;11.27;;
22995;SDS011;11664;49.774;8.650;2023-03-03T05:36:59;22.80;;;11.70;;
22995;SDS011;11664;49.774;8.650;2023-03-03T05:39:28;24.60;;;12.30;;
22995;SDS011;11664;49.774;8.650;2023-03-03T05:41:53;22.38;;;13.13;;
22995;SDS011;11664;49.774;8.650;2023-03-03T05:44:25;25.05;;;12.00;;
22995;SDS011;11664;49.774;8.650;2023-03-03T05:46:54;23.55;;;13.05;;
22995;SDS011;11664;49.774;8.650;2023-03-03T05:49:21;26.63;;;12.50;;
22995;SDS011;11664;49.774;8.650;2023-03-03T05:51:47;27.67;;;13.25;;
22995;SDS011;11664;49.774;8.650;2023-03-03T05:54:15;26.38;;;12.57;;
22995;SDS011;11664;49.774;8.650;2023-03-03T05:56:41;24.08;;;12.70;;
22995;SDS011;11664;49.774;8.650;2023-03-03T05:59:06;27.40;;;12.68;;
22995;SDS011;11664;49.774;8.650;2023-03-03T06:01:32;21.67;;;11.52;;
22995;SDS011;11664;49.774;8.650;2023-03-03T06:04:00;22.45;;;11.65;;
22995;SDS011;11664;49.774;8.650;2023-03-03T06:06:26;28.88;;;13.00;;
22995;SDS011;11664;49.774;8.650;2023-03-03T06:08:52;24.45;;;13.10;;
22995;SDS011;11664;49.774;8.650;2023-03-03T06:11:18;18.27;;;12.45;;
22995;SDS011;11664;49.774;8.650;2023-03-03T06:13:43;24.88;;;12.98;;
22995;SDS011;11664;49.774;8.650;2023-03-03T06:16:12;25.48;;;13.15;;
22995;SDS011;11664;49.774;8.650;2023-03-03T06:18:37;22.40;;;11.73;;
22995;SDS011;11664;49.774;8.650;2023-03-03T06:21:06;25.50;;;12.18;;
22995;SDS011;11664;49.774;8.650;2023-03-03T06:23:32;27.55;;;13.00;;
22995;SDS011;11664;49.774;8.650;2023-03-03T06:25:57;23.10;;;12.15;;
22995;SDS011;11664;49.774;8.650;2023-03-03T06:28:23;22.10;;;11.82;;
22995;SDS011;11664;49.774;8.650;2023-03-03T06:30:51;18.17;;;11.10;;
22995;SDS011;11664;49.774;8.650;2023-03-03T06:33:24;29.33;;;12.30;;
22995;SDS011;11664;49.774;8.650;2023-03-03T06:35:51;27.48;;;12.23;;
22995;SDS011;11664;49.774;8.650;2023-03-03T06:38:18;24.20;;;12.75;;
22995;SDS011;11664;49.774;8.650;2023-03-03T06:40:44;29.75;;;13.85;;
22995;SDS011;11664;49.774;8.650;2023-03-03T06:43:10;26.27;;;13.60;;
22995;SDS011;11664;49.774;8.650;2023-03-03T06:45:43;25.85;;;12.45;;
22995;SDS011;11664;49.774;8.650;2023-03-03T06:48:49;25.45;;;13.43;;
22995;SDS011;11664;49.774;8.650;2023-03-03T06:51:18;24.83;;;12.30;;
22995;SDS011;11664;49.774;8.650;2023-03-03T06:53:55;23.83;;;12.63;;
22995;SDS011;11664;49.774;8.650;2023-03-03T06:56:26;22.63;;;13.30;;
22995;SDS011;11664;49.774;8.650;2023-03-03T06:58:55;25.92;;;13.88;;
22995;SDS011;11664;49.774;8.650;2023-03-03T07:01:29;26.42;;;14.82;;
22995;SDS011;11664;49.774;8.650;2023-03-03T07:04:00;26.90;;;14.32;;
22995;SDS011;11664;49.774;8.650;2023-03-03T07:06:25;25.45;;;13.13;;
22995;SDS011;11664;49.774;8.650;2023-03-03T07:08:52;21.95;;;11.77;;
22995;SDS011;11664;49.774;8.650;2023-03-03T07:11:22;28.13;;;13.18;;
22995;SDS011;11664;49.774;8.650;2023-03-03T07:13:52;23.85;;;12.25;;
22995;SDS011;11664;49.774;8.650;2023-03-03T07:16:19;22.15;;;11.32;;
22995;SDS011;11664;49.774;8.650;2023-03-03T07:18:56;34.13;;;13.55;;
22995;SDS011;11664;49.774;8.650;2023-03-03T07:21:35;26.50;;;13.07;;
22995;SDS011;11664;49.774;8.650;2023-03-03T07:26:48;27.27;;;12.38;;
22995;SDS011;11664;49.774;8.650;2023-03-03T07:29:20;28.35;;;12.00;;
22995;SDS011;11664;49.774;8.650;2023-03-03T07:32:05;23.85;;;12.48;;
22995;SDS011;11664;49.774;8.650;2023-03-03T07:34:45;35.92;;;15.70;;
22995;SDS011;11664;49.774;8.650;2023-03-03T07:37:15;24.43;;;13.63;;
22995;SDS011;11664;49.774;8.650;2023-03-03T07:39:52;32.70;;;13.68;;
22995;SDS011;11664;49.774;8.650;2023-03-03T07:42:20;33.97;;;15.25;;
22995;SDS011;11664;49.774;8.650;2023-03-03T07:44:58;29.13;;;14.82;;
22995;SDS011;11664;49.774;8.650;2023-03-03T07:47:44;34.65;;;17.10;;
22995;SDS011;11664;49.774;8.650;2023-03-03T07:50:19;35.15;;;17.50;;
22995;SDS011;11664;49.774;8.650;2023-03-03T07:52:57;34.97;;;17.30;;
22995;SDS011;11664;49.774;8.650;2023-03-03T07:55:26;26.63;;;13.85;;
22995;SDS011;11664;49.774;8.650;2023-03-03T08:03:19;34.70;;;14.48;;
22995;SDS011;11664;49.774;8.650;2023-03-03T08:05:48;27.02;;;14.27;;
22995;SDS011;11664;49.774;8.650;2023-03-03T08:08:25;36.00;;;16.50;;
22995;SDS011;11664;49.774;8.650;2023-03-03T08:10:56;34.83;;;15.70;;
22995;SDS011;11664;49.774;8.650;2023-03-03T08:13:34;35.88;;;15.95;;
22995;SDS011;11664;49.774;8.650;2023-03-03T08:18:37;31.17;;;15.70;;
22995;SDS011;11664;49.774;8.650;2023-03-03T08:21:14;34.95;;;21.58;;
22995;SDS011;11664;49.774;8.650;2023-03-03T08:23:44;32.45;;;15.88;;
22995;SDS011;11664;49.774;8.650;2023-03-03T08:26:16;37.45;;;16.58;;
22995;SDS011;11664;49.774;8.650;2023-03-03T08:28:43;32.58;;;15.13;;
22995;SDS011;11664;49.774;8.650;2023-03-03T08:31:09;30.30;;;14.27;;
22995;SDS011;11664;49.774;8.650;2023-03-03T08:33:36;33.47;;;16.13;;
22995;SDS011;11664;49.774;8.650;2023-03-03T08:36:01;37.28;;;18.33;;
22995;SDS011;11664;49.774;8.650;2023-03-03T08:38:27;39.00;;;16.92;;
22995;SDS011;11664;49.774;8.650;2023-03-03T08:40:52;30.63;;;14.80;;
22995;SDS011;11664;49.774;8.650;2023-03-03T08:43:18;40.03;;;15.88;;
22995;SDS011;11664;49.774;8.650;2023-03-03T08:45:46;29.27;;;15.32;;
22995;SDS011;11664;49.774;8.650;2023-03-03T08:48:13;31.05;;;14.98;;
22995;SDS011;11664;49.774;8.650;2023-03-03T08:50:39;36.30;;;15.38;;
22995;SDS011;11664;49.774;8.650;2023-03-03T08:53:08;35.65;;;17.88;;
22995;SDS011;11664;49.774;8.650;2023-03-03T08:55:35;42.95;;;16.13;;
22995;SDS011;11664;49.774;8.650;2023-03-03T08:58:00;35.28;;;15.85;;
22995;SDS011;11664;49.774;8.650;2023-03-03T09:00:29;32.47;;;15.25;;
22995;SDS011;11664;49.774;8.650;2023-03-03T09:02:55;35.25;;;16.75;;
22995;SDS011;11664;49.774;8.650;2023-03-03T09:05:20;35.50;;;14.00;;
22995;SDS011;11664;49.774;8.650;2023-03-03T09:07:47;32.17;;;14.45;;
22995;SDS011;11664;49.774;8.650;2023-03-03T09:10:15;32.97;;;13.95;;
22995;SDS011;11664;49.774;8.650;2023-03-03T09:12:44;32.40;;;13.98;;
22995;SDS011;11664;49.774;8.650;2023-03-03T09:15:16;26.20;;;12.48;;
22995;SDS011;11664;49.774;8.650;2023-03-03T09:17:45;31.00;;;14.70;;
22995;SDS011;11664;49.774;8.650;2023-03-03T09:20:20;35.92;;;16.85;;
22995;SDS011;11664;49.774;8.650;2023-03-03T09:22:49;32.28;;;14.65;;
22995;SDS011;11664;49.774;8.650;2023-03-03T09:25:33;39.72;;;15.60;;
22995;SDS011;11664;49.774;8.650;2023-03-03T09:28:01;34.28;;;14.57;;
22995;SDS011;11664;49.774;8.650;2023-03-03T09:30:39;27.90;;;15.32;;
22995;SDS011;11664;49.774;8.650;2023-03-03T09:33:26;35.30;;;16.02;;
22995;SDS011;11664;49.774;8.650;2023-03-03T09:46:38;31.27;;;15.43;;
22995;SDS011;11664;49.774;8.650;2023-03-03T09:54:28;29.70;;;13.30;;
22995;SDS011;11664;49.774;8.650;2023-03-03T09:57:08;37.78;;;14.52;;
22995;SDS011;11664;49.774;8.650;2023-03-03T09:59:56;28.67;;;14.52;;
22995;SDS011;11664;49.774;8.650;2023-03-03T10:08:09;34.58;;;14.90;;
22995;SDS011;11664;49.774;8.650;2023-03-03T10:10:44;32.65;;;14.80;;
22995;SDS011;11664;49.774;8.650;2023-03-03T10:13:30;31.33;;;14.27;;
22995;SDS011;11664;49.774;8.650;2023-03-03T10:22:01;32.70;;;12.95;;
22995;SDS011;11664;49.774;8.650;2023-03-03T10:30:27;30.88;;;13.18;;
22995;SDS011;11664;49.774;8.650;2023-03-03T10:33:00;29.98;;;11.88;;
22995;SDS011;11664;49.774;8.650;2023-03-03T10:41:30;30.25;;;14.10;;
22995;SDS011;11664;49.774;8.650;2023-03-03T10:50:09;26.10;;;12.00;;
22995;SDS011;11664;49.774;8.650;2023-03-03T11:01:03;27.13;;;12.65;;
22995;SDS011;11664;49.774;8.650;2023-03-03T11:06:34;25.42;;;12.25;;
22995;SDS011;11664;49.774;8.650;2023-03-03T11:09:14;26.63;;;12.50;;
22995;SDS011;11664;49.774;8.650;2023-03-03T11:11:52;26.83;;;11.88;;
22995;SDS011;11664;49.774;8.650;2023-03-03T11:14:31;24.10;;;11.75;;
22995;SDS011;11664;49.774;8.650;2023-03-03T11:17:04;25.98;;;11.43;;
22995;SDS011;11664;49.774;8.650;2023-03-03T11:20:07;24.65;;;11.00;;
22995;SDS011;11664;49.774;8.650;2023-03-03T11:23:03;19.30;;;9.57;;
22995;SDS011;11664;49.774;8.650;2023-03-03T11:25:49;23.40;;;10.85;;
22995;SDS011;11664;49.774;8.650;2023-03-03T11:31:12;22.58;;;10.80;;
22995;SDS011;11664;49.774;8.650;2023-03-03T11:36:34;24.98;;;10.98;;
22995;SDS011;11664;49.774;8.650;2023-03-03T11:39:08;23.77;;;11.25;;
22995;SDS011;11664;49.774;8.650;2023-03-03T11:46:48;22.35;;;9.93;;
22995;SDS011;11664;49.774;8.650;2023-03-03T11:49:21;23.70;;;10.85;;
22995;SDS011;11664;49.774;8.650;2023-03-03T11:57:14;21.00;;;10.60;;
22995;SDS011;11664;49.774;8.650;2023-03-03T11:59:49;23.38;;;11.30;;
22995;SDS011;11664;49.774;8.650;2023-03-03T12:05:26;18.95;;;9.35;;
22995;SDS011;11664;49.774;8.650;2023-03-03T12:08:06;25.35;;;10.18;;
22995;SDS011;11664;49.774;8.650;2023-03-03T12:10:42;18.45;;;9.02;;
22995;SDS011;11664;49.774;8.650;2023-03-03T12:13:29;19.95;;;9.68;;
22995;SDS011;11664;49.774;8.650;2023-03-03T12:16:40;21.80;;;10.35;;
22995;SDS011;11664;49.774;8.650;2023-03-03T12:19:29;25.35;;;10.95;;
22995;SDS011;11664;49.774;8.650;2023-03-03T12:22:07;17.83;;;9.80;;
22995;SDS011;11664;49.774;8.650;2023-03-03T12:27:28;18.58;;;10.15;;
22995;SDS011;11664;49.774;8.650;2023-03-03T12:30:04;21.58;;;9.85;;
22995;SDS011;11664;49.774;8.650;2023-03-03T12:49:01;20.33;;;9.70;;
22995;SDS011;11664;49.774;8.650;2023-03-03T12:51:41;24.80;;;9.40;;
22995;SDS011;11664;49.774;8.650;2023-03-03T12:54:19;17.10;;;9.52;;
22995;SDS011;11664;49.774;8.650;2023-03-03T12:56:52;19.52;;;9.50;;
22995;SDS011;11664;49.774;8.650;2023-03-03T13:01:59;20.52;;;9.82;;
22995;SDS011;11664;49.774;8.650;2023-03-03T13:07:26;18.98;;;9.80;;
22995;SDS011;11664;49.774;8.650;2023-03-03T13:10:17;16.05;;;9.15;;
22995;SDS011;11664;49.774;8.650;2023-03-03T13:13:02;19.30;;;11.00;;
22995;SDS011;11664;49.774;8.650;2023-03-03T13:15:38;18.30;;;9.40;;
22995;SDS011;11664;49.774;8.650;2023-03-03T13:18:24;18.02;;;9.98;;
22995;SDS011;11664;49.774;8.650;2023-03-03T13:28:57;23.00;;;9.35;;
22995;SDS011;11664;49.774;8.650;2023-03-03T13:31:38;17.95;;;9.18;;
22995;SDS011;11664;49.774;8.650;2023-03-03T13:39:22;17.95;;;9.82;;
22995;SDS011;11664;49.774;8.650;2023-03-03T13:44:29;15.98;;;8.88;;
22995;SDS011;11664;49.774;8.650;2023-03-03T13:47:25;12.98;;;7.85;;
22995;SDS011;11664;49.774;8.650;2023-03-03T13:50:19;13.73;;;7.60;;
22995;SDS011;11664;49.774;8.650;2023-03-03T14:01:46;14.48;;;8.05;;
22995;SDS011;11664;49.774;8.650;2023-03-03T14:04:28;14.63;;;8.85;;
22995;SDS011;11664;49.774;8.650;2023-03-03T14:07:40;15.48;;;9.27;;
22995;SDS011;11664;49.774;8.650;2023-03-03T14:10:35;15.93;;;8.50;;
22995;SDS011;11664;49.774;8.650;2023-03-03T14:13:12;16.63;;;8.38;;
22995;SDS011;11664;49.774;8.650;2023-03-03T14:18:23;14.70;;;7.85;;
22995;SDS011;11664;49.774;8.650;2023-03-03T14:20:52;13.07;;;7.43;;
22995;SDS011;11664;49.774;8.650;2023-03-03T14:23:24;15.07;;;8.30;;
22995;SDS011;11664;49.774;8.650;2023-03-03T14:28:28;14.40;;;8.45;;
22995;SDS011;11664;49.774;8.650;2023-03-03T14:30:56;14.02;;;7.72;;
22995;SDS011;11664;49.774;8.650;2023-03-03T14:33:26;12.20;;;7.18;;
22995;SDS011;11664;49.774;8.650;2023-03-03T14:36:02;11.52;;;6.57;;
22995;SDS011;11664;49.774;8.650;2023-03-03T14:43:36;8.75;;;6.50;;
22995;SDS011;11664;49.774;8.650;2023-03-03T14:48:58;8.30;;;6.18;;
22995;SDS011;11664;49.774;8.650;2023-03-03T14:54:25;11.57;;;6.35;;
22995;SDS011;11664;49.774;8.650;2023-03-03T14:59:31;12.40;;;6.43;;
22995;SDS011;11664;49.774;8.650;2023-03-03T15:02:06;17.40;;;7.88;;
22995;SDS011;11664;49.774;8.650;2023-03-03T15:04:35;10.02;;;6.07;;
22995;SDS011;11664;49.774;8.650;2023-03-03T15:07:13;10.88;;;6.10;;
22995;SDS011;11664;49.774;8.650;2023-03-03T15:09:58;10.88;;;6.13;;
22995;SDS011;11664;49.774;8.650;2023-03-03T15:12:24;10.80;;;6.07;;
22995;SDS011;11664;49.774;8.650;2023-03-03T15:17:32;10.43;;;6.05;;
22995;SDS011;11664;49.774;8.650;2023-03-03T15:25:44;11.73;;;6.28;;
22995;SDS011;11664;49.774;8.650;2023-03-03T15:34:01;10.75;;;6.57;;
22995;SDS011;11664;49.774;8.650;2023-03-03T15:36:59;9.05;;;6.43;;
22995;SDS011;11664;49.774;8.650;2023-03-03T15:45:31;11.50;;;6.95;;
22995;SDS011;11664;49.774;8.650;2023-03-03T15:50:44;12.87;;;7.17;;
22995;SDS011;11664;49.774;8.650;2023-03-03T15:56:19;11.23;;;6.50;;
22995;SDS011;11664;49.774;8.650;2023-03-03T16:01:28;13.15;;;7.70;;
22995;SDS011;11664;49.774;8.650;2023-03-03T16:03:58;13.35;;;7.43;;
22995;SDS011;11664;49.774;8.650;2023-03-03T16:06:39;13.27;;;7.60;;
22995;SDS011;11664;49.774;8.650;2023-03-03T16:11:47;20.17;;;9.05;;
22995;SDS011;11664;49.774;8.650;2023-03-03T16:16:52;16.95;;;8.55;;
22995;SDS011;11664;49.774;8.650;2023-03-03T16:28:13;11.43;;;6.38;;
22995;SDS011;11664;49.774;8.650;2023-03-03T16:30:51;12.90;;;6.60;;
22995;SDS011;11664;49.774;8.650;2023-03-03T16:33:41;13.18;;;6.35;;
22995;SDS011;11664;49.774;8.650;2023-03-03T16:38:44;11.32;;;6.38;;
22995;SDS011;11664;49.774;8.650;2023-03-03T16:41:50;12.18;;;7.32;;
22995;SDS011;11664;49.774;8.650;2023-03-03T16:58:40;5.55;;;4.47;;
22995;SDS011;11664;49.774;8.650;2023-03-03T17:03:57;10.10;;;5.63;;
22995;SDS011;11664;49.774;8.650;2023-03-03T17:09:20;8.93;;;6.03;;
22995;SDS011;11664;49.774;8.650;2023-03-03T17:17:40;10.60;;;6.32;;
22995;SDS011;11664;49.774;8.650;2023-03-03T17:25:43;7.45;;;5.38;;
22995;SDS011;11664;49.774;8.650;2023-03-03T17:28:24;7.80;;;4.90;;
22995;SDS011;11664;49.774;8.650;2023-03-03T17:31:09;16.10;;;5.97;;
22995;SDS011;11664;49.774;8.650;2023-03-03T17:34:02;7.80;;;4.72;;
22995;SDS011;11664;49.774;8.650;2023-03-03T17:36:53;5.85;;;4.20;;
22995;SDS011;11664;49.774;8.650;2023-03-03T17:42:14;6.70;;;4.88;;
22995;SDS011;11664;49.774;8.650;2023-03-03T17:44:49;9.98;;;5.03;;
22995;SDS011;11664;49.774;8.650;2023-03-03T17:47:29;7.03;;;4.78;;
22995;SDS011;11664;49.774;8.650;2023-03-03T17:55:55;12.00;;;5.78;;
22995;SDS011;11664;49.774;8.650;2023-03-03T17:58:49;11.05;;;6.07;;
22995;SDS011;11664;49.774;8.650;2023-03-03T18:17:14;8.43;;;5.40;;
22995;SDS011;11664;49.774;8.650;2023-03-03T18:22:22;9.35;;;5.53;;
22995;SDS011;11664;49.774;8.650;2023-03-03T18:24:59;8.10;;;5.72;;
22995;SDS011;11664;49.774;8.650;2023-03-03T18:27:36;8.02;;;5.63;;
22995;SDS011;11664;49.774;8.650;2023-03-03T18:30:12;11.05;;;6.88;;
22995;SDS011;11664;49.774;8.650;2023-03-03T18:37:48;8.05;;;5.47;;
22995;SDS011;11664;49.774;8.650;2023-03-03T18:42:50;10.75;;;5.32;;
22995;SDS011;11664;49.774;8.650;2023-03-03T18:47:57;10.10;;;6.00;;
22995;SDS011;11664;49.774;8.650;2023-03-03T18:50:41;10.45;;;5.13;;
22995;SDS011;11664;49.774;8.650;2023-03-03T18:53:16;12.13;;;7.68;;
22995;SDS011;11664;49.774;8.650;2023-03-03T18:56:08;7.80;;;5.15;;
22995;SDS011;11664;49.774;8.650;2023-03-03T18:58:35;8.13;;;5.15;;
22995;SDS011;11664;49.774;8.650;2023-03-03T19:01:32;9.10;;;5.38;;
22995;SDS011;11664;49.774;8.650;2023-03-03T19:04:11;9.10;;;5.18;;
22995;SDS011;11664;49.774;8.650;2023-03-03T19:09:42;7.53;;;5.03;;
22995;SDS011;11664;49.774;8.650;2023-03-03T19:12:10;10.70;;;5.55;;
22995;SDS011;11664;49.774;8.650;2023-03-03T19:14:41;5.30;;;4.35;;
22995;SDS011;11664;49.774;8.650;2023-03-03T19:20:00;11.68;;;5.20;;
22995;SDS011;11664;49.774;8.650;2023-03-03T19:22:27;7.07;;;4.93;;
22995;SDS011;11664;49.774;8.650;2023-03-03T19:28:04;9.50;;;5.65;;
22995;SDS011;11664;49.774;8.650;2023-03-03T19:30:57;7.25;;;4.80;;
22995;SDS011;11664;49.774;8.650;2023-03-03T19:39:06;7.03;;;4.60;;
22995;SDS011;11664;49.774;8.650;2023-03-03T19:42:01;11.18;;;5.30;;
22995;SDS011;11664;49.774;8.650;2023-03-03T19:50:49;11.27;;;5.00;;
22995;SDS011;11664;49.774;8.650;2023-03-03T19:53:50;11.10;;;6.22;;
22995;SDS011;11664;49.774;8.650;2023-03-03T19:56:40;7.45;;;4.93;;
22995;SDS011;11664;49.774;8.650;2023-03-03T19:59:22;7.90;;;5.00;;
22995;SDS011;11664;49.774;8.650;2023-03-03T20:10:22;8.38;;;4.80;;
22995;SDS011;11664;49.774;8.650;2023-03-03T20:13:13;6.78;;;4.85;;
22995;SDS011;11664;49.774;8.650;2023-03-03T20:27:07;6.75;;;4.60;;
22995;SDS011;11664;49.774;8.650;2023-03-03T20:32:40;6.32;;;4.55;;
22995;SDS011;11664;49.774;8.650;2023-03-03T20:35:29;10.35;;;5.03;;
22995;SDS011;11664;49.774;8.650;2023-03-03T20:40:46;8.45;;;5.30;;
22995;SDS011;11664;49.774;8.650;2023-03-03T20:43:38;7.57;;;5.13;;
22995;SDS011;11664;49.774;8.650;2023-03-03T20:46:28;9.68;;;5.50;;
22995;SDS011;11664;49.774;8.650;2023-03-03T20:51:54;7.60;;;5.28;;